Akson Serin — 3FAM6 — position and weather

sailwx.info

Track history (hours):
 
Tides and Currents Weather Stations Pressure Air Temp Water Temp Dewpoint Dewpoint Depression Visibility Wind Speed Wind Dir Waves Ship Positions

Akson Serin

Last reported at 2017-Dec-01 21:10 UTC. Time now 2018-Feb-22 05:17 UTC.
Position N 28°22' W 016°11'.
Warning: this ship's position is months out of date.

Length 190 m; draft 9.2 m.

Type: Cargo ship. MMSI: 354912000.

Date/timePositionNaut miles runAvg speedWind from/ knotsBaromVisibWave heightAir tempDewpointWater temp
2017-Dec-01 21:10N 28°22' W 016°11'312.2
2017-Dec-01 20:55N 28°25' W 016°11'4 7.6
2017-Dec-01 20:23N 28°29' W 016°12'0 0.3
2017-Dec-01 19:57N 28°29' W 016°13'0 0.0
2017-Dec-01 18:57N 28°29' W 016°13'0 0.0
2017-Dec-01 11:07N 28°29' W 016°13'0 0.9
2017-Dec-01 10:59N 28°29' W 016°12'2 4.7
2017-Dec-01 10:30N 28°27' W 016°11'2 4.0
2017-Dec-01 10:00N 28°26' W 016°09'0 0.6
2017-Dec-01 09:08N 28°26' W 016°10'0 0.2
2017-Dec-01 08:59N 28°26' W 016°10'0 0.3
2017-Dec-01 08:30N 28°26' W 016°10'0 0.3
2017-Dec-01 08:00N 28°26' W 016°10'0 0.5
2017-Dec-01 07:30N 28°26' W 016°10'3 3.5
2017-Dec-01 06:38N 28°26' W 016°07'2 6.9
2017-Dec-01 06:24N 28°25' W 016°05'4 7.1
2017-Dec-01 05:53N 28°24' W 016°01'3 7.0
2017-Dec-01 05:30N 28°24' W 015°58'3 7.0
2017-Dec-01 05:00N 28°26' W 015°55'4 7.6
2017-Dec-01 04:30N 28°29' W 015°53'5 9.8
2017-Dec-01 04:00N 28°33' W 015°50'612.2
2017-Dec-01 03:30N 28°38' W 015°46'612.4
2017-Dec-01 03:00N 28°43' W 015°42'612.4
2017-Dec-01 02:30N 28°49' W 015°38'612.3
2017-Dec-01 01:59N 28°54' W 015°34'712.1
2017-Dec-01 01:25N 28°59' W 015°29'612.3
2017-Dec-01 00:57N 29°04' W 015°25'  
2017-Nov-25 17:12N 35°58' W 005°36'3 9.9
2017-Nov-25 16:54N 35°59' W 005°32'4 9.3
2017-Nov-25 16:31N 35°60' W 005°28'4 8.9
2017-Nov-25 16:00N 36°01' W 005°23'4 8.8
2017-Nov-25 15:30N 36°02' W 005°18'4 8.2
2017-Nov-25 15:00N 36°03' W 005°13'4 8.2
2017-Nov-25 14:30N 36°04' W 005°08'5 9.6
2017-Nov-25 13:58N 36°04' W 005°01'5 9.9
2017-Nov-25 13:29N 36°05' W 004°56'157 9.2
2017-Nov-24 20:33N 36°27' W 001°43'2 8.5
2017-Nov-24 20:21N 36°27' W 001°41'3 8.5
2017-Nov-24 20:00N 36°27' W 001°38'4 8.6
2017-Nov-24 19:29N 36°26' W 001°32'6 8.8
2017-Nov-24 18:51N 36°27' W 001°25'3 9.0
2017-Nov-24 18:30N 36°28' W 001°21'11 9.1
2017-Nov-24 17:15N 36°28' W 001°07'311.4
2017-Nov-24 16:57N 36°28' W 001°03'1010.4
2017-Nov-24 16:01N 36°29' W 000°51'1 9.6
2017-Nov-24 15:58N 36°29' W 000°50'4 9.4
2017-Nov-24 15:30N 36°29' W 000°45'5 9.4
2017-Nov-24 15:00N 36°30' W 000°39'5 9.2
2017-Nov-24 14:29N 36°30' W 000°33'4 9.1
2017-Nov-24 14:00N 36°30' W 000°28'611.2
2017-Nov-24 13:28N 36°31' W 000°20'612.1
2017-Nov-24 13:00N 36°32' W 000°13'812.0
2017-Nov-24 12:18N 36°33' W 000°03'711.8
2017-Nov-24 11:42N 36°34' E 000°06'311.7
2017-Nov-24 11:27N 36°35' E 000°09'511.8
2017-Nov-24 11:00N 36°36' E 000°16'611.7
2017-Nov-24 10:30N 36°37' E 000°23'611.5
2017-Nov-24 10:00N 36°38' E 000°30'611.6
2017-Nov-24 09:30N 36°39' E 000°37'611.4
2017-Nov-24 09:00N 36°40' E 000°44'611.3
2017-Nov-24 08:30N 36°41' E 000°51'611.4
2017-Nov-24 08:00N 36°42' E 000°58'510.5
2017-Nov-24 07:30N 36°43' E 001°04'510.9
2017-Nov-24 07:00N 36°44' E 001°11'510.8
2017-Nov-24 06:30N 36°45' E 001°18'510.8
2017-Nov-24 06:00N 36°46' E 001°24'611.2
2017-Nov-24 05:30N 36°46' E 001°31'611.1
2017-Nov-24 05:00N 36°47' E 001°38'510.9
2017-Nov-24 04:30N 36°47' E 001°45'510.5
2017-Nov-24 04:00N 36°48' E 001°51'510.0
2017-Nov-24 03:30N 36°49' E 001°58'510.3
2017-Nov-24 03:00N 36°51' E 002°03'510.9
2017-Nov-24 02:30N 36°54' E 002°09'510.9
2017-Nov-24 02:00N 36°57' E 002°14'510.5
2017-Nov-24 01:30N 36°59' E 002°21'610.9
2017-Nov-24 00:59N 36°59' E 002°28'610.9
2017-Nov-24 00:27N 36°59' E 002°35'510.7
2017-Nov-24 00:00N 36°60' E 002°41'510.6
2017-Nov-23 23:30N 37°01' E 002°47'510.4
2017-Nov-23 23:01N 37°02' E 002°54'710.2
2017-Nov-23 22:19N 37°03' E 003°03'3 9.9
2017-Nov-23 22:00N 37°03' E 003°07'3610.6
2017-Nov-23 18:34N 37°08' E 003°52'910.7
2017-Nov-23 17:46N 37°09' E 004°02'610.6
2017-Nov-23 17:11N 37°08' E 004°10'210.3
2017-Nov-23 17:00N 37°08' E 004°12'  
Track history (hours):
 
Tides and Currents Weather Stations Pressure Air Temp Water Temp Dewpoint Dewpoint Depression Visibility Wind Speed Wind Dir Waves Ship Positions

Akson Serin

Last reported at 2017-Dec-01 21:10 UTC. Time now 2018-Feb-22 05:17 UTC.
Position N 28°22' W 016°11'.
Warning: this ship's position is months out of date.

Length 190 m; draft 9.2 m.

Type: Cargo ship. MMSI: 354912000.

Date/timePositionNaut miles runAvg speedWind from/ knotsBaromVisibWave heightAir tempDewpointWater temp
2017-Dec-01 21:10N 28°22' W 016°11'312.2
2017-Dec-01 20:55N 28°25' W 016°11'4 7.6
2017-Dec-01 20:23N 28°29' W 016°12'0 0.3
2017-Dec-01 19:57N 28°29' W 016°13'0 0.0
2017-Dec-01 18:57N 28°29' W 016°13'0 0.0
2017-Dec-01 11:07N 28°29' W 016°13'0 0.9
2017-Dec-01 10:59N 28°29' W 016°12'2 4.7
2017-Dec-01 10:30N 28°27' W 016°11'2 4.0
2017-Dec-01 10:00N 28°26' W 016°09'0 0.6
2017-Dec-01 09:08N 28°26' W 016°10'0 0.2
2017-Dec-01 08:59N 28°26' W 016°10'0 0.3
2017-Dec-01 08:30N 28°26' W 016°10'0 0.3
2017-Dec-01 08:00N 28°26' W 016°10'0 0.5
2017-Dec-01 07:30N 28°26' W 016°10'3 3.5
2017-Dec-01 06:38N 28°26' W 016°07'2 6.9
2017-Dec-01 06:24N 28°25' W 016°05'4 7.1
2017-Dec-01 05:53N 28°24' W 016°01'3 7.0
2017-Dec-01 05:30N 28°24' W 015°58'3 7.0
2017-Dec-01 05:00N 28°26' W 015°55'4 7.6
2017-Dec-01 04:30N 28°29' W 015°53'5 9.8
2017-Dec-01 04:00N 28°33' W 015°50'612.2
2017-Dec-01 03:30N 28°38' W 015°46'612.4
2017-Dec-01 03:00N 28°43' W 015°42'612.4
2017-Dec-01 02:30N 28°49' W 015°38'612.3
2017-Dec-01 01:59N 28°54' W 015°34'712.1
2017-Dec-01 01:25N 28°59' W 015°29'612.3
2017-Dec-01 00:57N 29°04' W 015°25'  
2017-Nov-25 17:12N 35°58' W 005°36'3 9.9
2017-Nov-25 16:54N 35°59' W 005°32'4 9.3
2017-Nov-25 16:31N 35°60' W 005°28'4 8.9
2017-Nov-25 16:00N 36°01' W 005°23'4 8.8
2017-Nov-25 15:30N 36°02' W 005°18'4 8.2
2017-Nov-25 15:00N 36°03' W 005°13'4 8.2
2017-Nov-25 14:30N 36°04' W 005°08'5 9.6
2017-Nov-25 13:58N 36°04' W 005°01'5 9.9
2017-Nov-25 13:29N 36°05' W 004°56'157 9.2
2017-Nov-24 20:33N 36°27' W 001°43'2 8.5
2017-Nov-24 20:21N 36°27' W 001°41'3 8.5
2017-Nov-24 20:00N 36°27' W 001°38'4 8.6
2017-Nov-24 19:29N 36°26' W 001°32'6 8.8
2017-Nov-24 18:51N 36°27' W 001°25'3 9.0
2017-Nov-24 18:30N 36°28' W 001°21'11 9.1
2017-Nov-24 17:15N 36°28' W 001°07'311.4
2017-Nov-24 16:57N 36°28' W 001°03'1010.4
2017-Nov-24 16:01N 36°29' W 000°51'1 9.6
2017-Nov-24 15:58N 36°29' W 000°50'4 9.4
2017-Nov-24 15:30N 36°29' W 000°45'5 9.4
2017-Nov-24 15:00N 36°30' W 000°39'5 9.2
2017-Nov-24 14:29N 36°30' W 000°33'4 9.1
2017-Nov-24 14:00N 36°30' W 000°28'611.2
2017-Nov-24 13:28N 36°31' W 000°20'612.1
2017-Nov-24 13:00N 36°32' W 000°13'812.0
2017-Nov-24 12:18N 36°33' W 000°03'711.8
2017-Nov-24 11:42N 36°34' E 000°06'311.7
2017-Nov-24 11:27N 36°35' E 000°09'511.8
2017-Nov-24 11:00N 36°36' E 000°16'611.7
2017-Nov-24 10:30N 36°37' E 000°23'611.5
2017-Nov-24 10:00N 36°38' E 000°30'611.6
2017-Nov-24 09:30N 36°39' E 000°37'611.4
2017-Nov-24 09:00N 36°40' E 000°44'611.3
2017-Nov-24 08:30N 36°41' E 000°51'611.4
2017-Nov-24 08:00N 36°42' E 000°58'510.5
2017-Nov-24 07:30N 36°43' E 001°04'510.9
2017-Nov-24 07:00N 36°44' E 001°11'510.8
2017-Nov-24 06:30N 36°45' E 001°18'510.8
2017-Nov-24 06:00N 36°46' E 001°24'611.2
2017-Nov-24 05:30N 36°46' E 001°31'611.1
2017-Nov-24 05:00N 36°47' E 001°38'510.9
2017-Nov-24 04:30N 36°47' E 001°45'510.5
2017-Nov-24 04:00N 36°48' E 001°51'510.0
2017-Nov-24 03:30N 36°49' E 001°58'510.3
2017-Nov-24 03:00N 36°51' E 002°03'510.9
2017-Nov-24 02:30N 36°54' E 002°09'510.9
2017-Nov-24 02:00N 36°57' E 002°14'510.5
2017-Nov-24 01:30N 36°59' E 002°21'610.9
2017-Nov-24 00:59N 36°59' E 002°28'610.9
2017-Nov-24 00:27N 36°59' E 002°35'510.7
2017-Nov-24 00:00N 36°60' E 002°41'510.6
2017-Nov-23 23:30N 37°01' E 002°47'510.4
2017-Nov-23 23:01N 37°02' E 002°54'710.2
2017-Nov-23 22:19N 37°03' E 003°03'3 9.9
2017-Nov-23 22:00N 37°03' E 003°07'3610.6
2017-Nov-23 18:34N 37°08' E 003°52'910.7
2017-Nov-23 17:46N 37°09' E 004°02'610.6
2017-Nov-23 17:11N 37°08' E 004°10'210.3
2017-Nov-23 17:00N 37°08' E 004°12'  

Dump ship's entire track history